sensor_id;sensor_type;location;lat;lon;timestamp;P1;durP1;ratioP1;P2;durP2;ratioP2
14342;SDS011;7255;53.596;9.960;2023-04-26T00:01:00;4.50;;;2.00;;
14342;SDS011;7255;53.596;9.960;2023-04-26T00:03:29;4.68;;;1.80;;
14342;SDS011;7255;53.596;9.960;2023-04-26T00:05:56;3.30;;;1.70;;
14342;SDS011;7255;53.596;9.960;2023-04-26T00:08:25;3.37;;;1.60;;
14342;SDS011;7255;53.596;9.960;2023-04-26T00:10:51;4.72;;;2.20;;
14342;SDS011;7255;53.596;9.960;2023-04-26T00:13:17;4.30;;;2.25;;
14342;SDS011;7255;53.596;9.960;2023-04-26T00:15:44;4.00;;;1.98;;
14342;SDS011;7255;53.596;9.960;2023-04-26T00:18:10;4.50;;;2.25;;
14342;SDS011;7255;53.596;9.960;2023-04-26T00:20:36;3.85;;;1.90;;
14342;SDS011;7255;53.596;9.960;2023-04-26T00:23:03;2.80;;;1.62;;
14342;SDS011;7255;53.596;9.960;2023-04-26T00:25:31;2.85;;;1.80;;
14342;SDS011;7255;53.596;9.960;2023-04-26T00:27:57;3.37;;;1.92;;
14342;SDS011;7255;53.596;9.960;2023-04-26T00:30:23;4.60;;;1.85;;
14342;SDS011;7255;53.596;9.960;2023-04-26T00:32:49;3.43;;;1.97;;
14342;SDS011;7255;53.596;9.960;2023-04-26T00:35:16;4.18;;;1.90;;
14342;SDS011;7255;53.596;9.960;2023-04-26T00:37:42;2.25;;;1.70;;
14342;SDS011;7255;53.596;9.960;2023-04-26T00:40:09;5.37;;;1.70;;
14342;SDS011;7255;53.596;9.960;2023-04-26T00:42:38;1.90;;;1.80;;
14342;SDS011;7255;53.596;9.960;2023-04-26T00:45:05;3.08;;;1.90;;
14342;SDS011;7255;53.596;9.960;2023-04-26T00:47:33;2.40;;;1.80;;
14342;SDS011;7255;53.596;9.960;2023-04-26T00:50:00;3.97;;;2.10;;
14342;SDS011;7255;53.596;9.960;2023-04-26T00:52:27;5.35;;;2.40;;
14342;SDS011;7255;53.596;9.960;2023-04-26T00:54:54;5.82;;;2.37;;
14342;SDS011;7255;53.596;9.960;2023-04-26T00:57:21;2.60;;;2.33;;
14342;SDS011;7255;53.596;9.960;2023-04-26T00:59:49;6.85;;;2.08;;
14342;SDS011;7255;53.596;9.960;2023-04-26T01:02:15;2.93;;;2.13;;
14342;SDS011;7255;53.596;9.960;2023-04-26T01:04:42;4.68;;;2.03;;
14342;SDS011;7255;53.596;9.960;2023-04-26T01:07:09;2.85;;;1.92;;
14342;SDS011;7255;53.596;9.960;2023-04-26T01:09:36;4.80;;;2.15;;
14342;SDS011;7255;53.596;9.960;2023-04-26T01:12:02;4.10;;;1.98;;
14342;SDS011;7255;53.596;9.960;2023-04-26T01:14:31;3.00;;;2.00;;
14342;SDS011;7255;53.596;9.960;2023-04-26T01:16:59;4.95;;;2.42;;
14342;SDS011;7255;53.596;9.960;2023-04-26T01:19:25;4.25;;;2.20;;
14342;SDS011;7255;53.596;9.960;2023-04-26T01:21:52;3.37;;;2.10;;
14342;SDS011;7255;53.596;9.960;2023-04-26T01:24:19;8.35;;;3.03;;
14342;SDS011;7255;53.596;9.960;2023-04-26T01:26:45;4.30;;;2.70;;
14342;SDS011;7255;53.596;9.960;2023-04-26T01:29:13;6.45;;;2.58;;
14342;SDS011;7255;53.596;9.960;2023-04-26T01:31:40;4.25;;;2.75;;
14342;SDS011;7255;53.596;9.960;2023-04-26T01:34:07;7.43;;;2.67;;
14342;SDS011;7255;53.596;9.960;2023-04-26T01:36:33;8.30;;;3.53;;
14342;SDS011;7255;53.596;9.960;2023-04-26T01:39:00;4.25;;;2.95;;
14342;SDS011;7255;53.596;9.960;2023-04-26T01:41:27;5.62;;;3.05;;
14342;SDS011;7255;53.596;9.960;2023-04-26T01:43:53;6.70;;;3.60;;
14342;SDS011;7255;53.596;9.960;2023-04-26T01:46:20;6.12;;;3.25;;
14342;SDS011;7255;53.596;9.960;2023-04-26T01:48:46;3.40;;;2.90;;
14342;SDS011;7255;53.596;9.960;2023-04-26T01:51:13;4.07;;;2.90;;
14342;SDS011;7255;53.596;9.960;2023-04-26T01:53:40;5.68;;;3.12;;
14342;SDS011;7255;53.596;9.960;2023-04-26T01:56:06;6.30;;;2.85;;
14342;SDS011;7255;53.596;9.960;2023-04-26T01:58:34;5.40;;;2.87;;
14342;SDS011;7255;53.596;9.960;2023-04-26T02:01:03;5.30;;;2.90;;
14342;SDS011;7255;53.596;9.960;2023-04-26T02:03:31;4.70;;;2.90;;
14342;SDS011;7255;53.596;9.960;2023-04-26T02:05:57;4.05;;;2.85;;
14342;SDS011;7255;53.596;9.960;2023-04-26T02:08:23;5.20;;;2.72;;
14342;SDS011;7255;53.596;9.960;2023-04-26T02:10:50;5.65;;;2.95;;
14342;SDS011;7255;53.596;9.960;2023-04-26T02:13:16;5.45;;;2.90;;
14342;SDS011;7255;53.596;9.960;2023-04-26T02:15:46;4.07;;;2.60;;
14342;SDS011;7255;53.596;9.960;2023-04-26T02:18:13;5.57;;;2.70;;
14342;SDS011;7255;53.596;9.960;2023-04-26T02:20:39;4.60;;;2.60;;
14342;SDS011;7255;53.596;9.960;2023-04-26T02:23:07;6.72;;;3.35;;
14342;SDS011;7255;53.596;9.960;2023-04-26T02:25:33;5.30;;;3.03;;
14342;SDS011;7255;53.596;9.960;2023-04-26T02:28:00;6.00;;;3.05;;
14342;SDS011;7255;53.596;9.960;2023-04-26T02:30:26;4.53;;;2.60;;
14342;SDS011;7255;53.596;9.960;2023-04-26T02:32:54;4.87;;;2.80;;
14342;SDS011;7255;53.596;9.960;2023-04-26T02:35:21;5.43;;;2.70;;
14342;SDS011;7255;53.596;9.960;2023-04-26T02:37:47;5.40;;;2.80;;
14342;SDS011;7255;53.596;9.960;2023-04-26T02:40:16;4.97;;;3.05;;
14342;SDS011;7255;53.596;9.960;2023-04-26T02:42:43;4.20;;;2.90;;
14342;SDS011;7255;53.596;9.960;2023-04-26T02:45:09;7.32;;;2.60;;
14342;SDS011;7255;53.596;9.960;2023-04-26T02:47:36;4.18;;;2.35;;
14342;SDS011;7255;53.596;9.960;2023-04-26T02:50:04;6.12;;;2.65;;
14342;SDS011;7255;53.596;9.960;2023-04-26T02:52:32;5.43;;;2.55;;
14342;SDS011;7255;53.596;9.960;2023-04-26T02:54:59;4.73;;;2.80;;
14342;SDS011;7255;53.596;9.960;2023-04-26T02:57:26;2.90;;;2.33;;
14342;SDS011;7255;53.596;9.960;2023-04-26T02:59:52;5.18;;;2.35;;
14342;SDS011;7255;53.596;9.960;2023-04-26T03:02:19;4.15;;;2.70;;
14342;SDS011;7255;53.596;9.960;2023-04-26T03:04:46;6.60;;;3.10;;
14342;SDS011;7255;53.596;9.960;2023-04-26T03:07:13;4.68;;;2.80;;
14342;SDS011;7255;53.596;9.960;2023-04-26T03:09:40;5.10;;;3.42;;
14342;SDS011;7255;53.596;9.960;2023-04-26T03:12:06;5.68;;;2.85;;
14342;SDS011;7255;53.596;9.960;2023-04-26T03:14:33;5.37;;;3.08;;
14342;SDS011;7255;53.596;9.960;2023-04-26T03:17:01;5.90;;;3.87;;
14342;SDS011;7255;53.596;9.960;2023-04-26T03:19:27;5.90;;;3.50;;
14342;SDS011;7255;53.596;9.960;2023-04-26T03:21:53;7.22;;;3.45;;
14342;SDS011;7255;53.596;9.960;2023-04-26T03:24:21;5.05;;;3.90;;
14342;SDS011;7255;53.596;9.960;2023-04-26T03:26:48;8.73;;;3.90;;
14342;SDS011;7255;53.596;9.960;2023-04-26T03:29:14;6.85;;;3.83;;
14342;SDS011;7255;53.596;9.960;2023-04-26T03:31:41;7.05;;;3.60;;
14342;SDS011;7255;53.596;9.960;2023-04-26T03:34:08;6.80;;;3.50;;
14342;SDS011;7255;53.596;9.960;2023-04-26T03:36:34;4.37;;;3.08;;
14342;SDS011;7255;53.596;9.960;2023-04-26T03:39:00;5.13;;;3.97;;
14342;SDS011;7255;53.596;9.960;2023-04-26T03:41:30;8.07;;;3.30;;
14342;SDS011;7255;53.596;9.960;2023-04-26T03:43:57;7.57;;;3.35;;
14342;SDS011;7255;53.596;9.960;2023-04-26T03:46:23;5.62;;;3.00;;
14342;SDS011;7255;53.596;9.960;2023-04-26T03:48:50;5.78;;;3.10;;
14342;SDS011;7255;53.596;9.960;2023-04-26T03:51:16;8.63;;;3.37;;
14342;SDS011;7255;53.596;9.960;2023-04-26T03:53:42;5.50;;;3.35;;
14342;SDS011;7255;53.596;9.960;2023-04-26T03:56:10;3.67;;;2.90;;
14342;SDS011;7255;53.596;9.960;2023-04-26T03:58:38;4.93;;;2.58;;
14342;SDS011;7255;53.596;9.960;2023-04-26T04:01:04;5.95;;;2.97;;
14342;SDS011;7255;53.596;9.960;2023-04-26T04:03:30;5.40;;;3.00;;
14342;SDS011;7255;53.596;9.960;2023-04-26T04:05:57;4.47;;;2.90;;
14342;SDS011;7255;53.596;9.960;2023-04-26T04:08:23;4.12;;;2.97;;
14342;SDS011;7255;53.596;9.960;2023-04-26T04:10:50;5.28;;;2.85;;
14342;SDS011;7255;53.596;9.960;2023-04-26T04:13:16;7.30;;;3.15;;
14342;SDS011;7255;53.596;9.960;2023-04-26T04:15:44;5.93;;;3.35;;
14342;SDS011;7255;53.596;9.960;2023-04-26T04:18:11;4.87;;;2.95;;
14342;SDS011;7255;53.596;9.960;2023-04-26T04:20:37;3.92;;;2.87;;
14342;SDS011;7255;53.596;9.960;2023-04-26T04:23:03;5.10;;;2.87;;
14342;SDS011;7255;53.596;9.960;2023-04-26T04:25:31;4.12;;;3.35;;
14342;SDS011;7255;53.596;9.960;2023-04-26T04:27:58;4.90;;;3.47;;
14342;SDS011;7255;53.596;9.960;2023-04-26T04:30:25;6.03;;;3.47;;
14342;SDS011;7255;53.596;9.960;2023-04-26T04:32:54;5.95;;;3.30;;
14342;SDS011;7255;53.596;9.960;2023-04-26T04:35:23;5.22;;;3.50;;
14342;SDS011;7255;53.596;9.960;2023-04-26T04:37:52;7.00;;;3.60;;
14342;SDS011;7255;53.596;9.960;2023-04-26T04:40:20;6.47;;;3.45;;
14342;SDS011;7255;53.596;9.960;2023-04-26T04:42:46;5.10;;;3.42;;
14342;SDS011;7255;53.596;9.960;2023-04-26T04:45:13;5.85;;;3.20;;
14342;SDS011;7255;53.596;9.960;2023-04-26T04:47:39;5.75;;;3.78;;
14342;SDS011;7255;53.596;9.960;2023-04-26T04:50:08;6.97;;;4.15;;
14342;SDS011;7255;53.596;9.960;2023-04-26T04:52:34;4.82;;;3.22;;
14342;SDS011;7255;53.596;9.960;2023-04-26T04:55:01;7.85;;;3.70;;
14342;SDS011;7255;53.596;9.960;2023-04-26T04:57:27;5.70;;;3.60;;
14342;SDS011;7255;53.596;9.960;2023-04-26T04:59:54;7.00;;;3.60;;
14342;SDS011;7255;53.596;9.960;2023-04-26T05:02:20;6.30;;;3.20;;
14342;SDS011;7255;53.596;9.960;2023-04-26T05:04:47;5.75;;;3.30;;
14342;SDS011;7255;53.596;9.960;2023-04-26T05:07:14;5.60;;;3.33;;
14342;SDS011;7255;53.596;9.960;2023-04-26T05:09:42;7.60;;;3.25;;
14342;SDS011;7255;53.596;9.960;2023-04-26T05:12:08;4.22;;;3.30;;
14342;SDS011;7255;53.596;9.960;2023-04-26T05:14:35;8.05;;;3.40;;
14342;SDS011;7255;53.596;9.960;2023-04-26T05:17:01;4.57;;;3.37;;
14342;SDS011;7255;53.596;9.960;2023-04-26T05:19:27;6.93;;;3.60;;
14342;SDS011;7255;53.596;9.960;2023-04-26T05:21:54;7.70;;;3.80;;
14342;SDS011;7255;53.596;9.960;2023-04-26T05:24:23;7.07;;;3.92;;
14342;SDS011;7255;53.596;9.960;2023-04-26T05:26:49;8.20;;;3.67;;
14342;SDS011;7255;53.596;9.960;2023-04-26T05:29:15;5.70;;;3.50;;
14342;SDS011;7255;53.596;9.960;2023-04-26T05:31:42;4.75;;;3.25;;
14342;SDS011;7255;53.596;9.960;2023-04-26T05:34:08;7.35;;;3.87;;
14342;SDS011;7255;53.596;9.960;2023-04-26T05:36:35;6.47;;;3.70;;
14342;SDS011;7255;53.596;9.960;2023-04-26T05:39:01;5.65;;;3.53;;
14342;SDS011;7255;53.596;9.960;2023-04-26T05:41:31;5.57;;;3.72;;
14342;SDS011;7255;53.596;9.960;2023-04-26T05:43:57;6.70;;;3.30;;
14342;SDS011;7255;53.596;9.960;2023-04-26T05:46:23;6.53;;;3.57;;
14342;SDS011;7255;53.596;9.960;2023-04-26T05:48:50;5.00;;;3.17;;
14342;SDS011;7255;53.596;9.960;2023-04-26T05:51:16;7.53;;;4.70;;
14342;SDS011;7255;53.596;9.960;2023-04-26T05:53:43;5.22;;;3.53;;
14342;SDS011;7255;53.596;9.960;2023-04-26T05:56:09;4.72;;;3.20;;
14342;SDS011;7255;53.596;9.960;2023-04-26T05:58:36;7.03;;;3.60;;
14342;SDS011;7255;53.596;9.960;2023-04-26T06:01:03;5.50;;;3.30;;
14342;SDS011;7255;53.596;9.960;2023-04-26T06:03:30;5.78;;;3.42;;
14342;SDS011;7255;53.596;9.960;2023-04-26T06:05:57;5.87;;;3.20;;
14342;SDS011;7255;53.596;9.960;2023-04-26T06:08:24;5.80;;;3.40;;
14342;SDS011;7255;53.596;9.960;2023-04-26T06:10:52;6.78;;;3.65;;
14342;SDS011;7255;53.596;9.960;2023-04-26T06:13:18;5.70;;;3.63;;
14342;SDS011;7255;53.596;9.960;2023-04-26T06:15:46;5.20;;;4.10;;
14342;SDS011;7255;53.596;9.960;2023-04-26T06:18:12;6.18;;;3.62;;
14342;SDS011;7255;53.596;9.960;2023-04-26T06:20:38;6.07;;;3.58;;
14342;SDS011;7255;53.596;9.960;2023-04-26T06:23:05;6.32;;;3.33;;
14342;SDS011;7255;53.596;9.960;2023-04-26T06:25:31;5.40;;;3.70;;
14342;SDS011;7255;53.596;9.960;2023-04-26T06:27:57;4.70;;;3.05;;
14342;SDS011;7255;53.596;9.960;2023-04-26T06:30:24;4.90;;;3.30;;
14342;SDS011;7255;53.596;9.960;2023-04-26T06:32:52;6.07;;;3.42;;
14342;SDS011;7255;53.596;9.960;2023-04-26T06:35:18;5.18;;;3.40;;
14342;SDS011;7255;53.596;9.960;2023-04-26T06:37:47;7.25;;;3.60;;
14342;SDS011;7255;53.596;9.960;2023-04-26T06:40:13;5.37;;;3.20;;
14342;SDS011;7255;53.596;9.960;2023-04-26T06:42:40;5.10;;;3.33;;
14342;SDS011;7255;53.596;9.960;2023-04-26T06:45:07;5.22;;;3.47;;
14342;SDS011;7255;53.596;9.960;2023-04-26T06:47:34;5.10;;;3.30;;
14342;SDS011;7255;53.596;9.960;2023-04-26T06:50:03;3.93;;;3.17;;
14342;SDS011;7255;53.596;9.960;2023-04-26T06:52:30;6.37;;;3.37;;
14342;SDS011;7255;53.596;9.960;2023-04-26T06:54:59;7.60;;;3.57;;
14342;SDS011;7255;53.596;9.960;2023-04-26T06:57:26;5.12;;;3.47;;
14342;SDS011;7255;53.596;9.960;2023-04-26T06:59:52;8.63;;;3.60;;
14342;SDS011;7255;53.596;9.960;2023-04-26T07:02:18;5.23;;;3.03;;
14342;SDS011;7255;53.596;9.960;2023-04-26T07:04:46;8.27;;;2.80;;
14342;SDS011;7255;53.596;9.960;2023-04-26T07:07:14;4.47;;;3.35;;
14342;SDS011;7255;53.596;9.960;2023-04-26T07:09:41;5.95;;;3.00;;
14342;SDS011;7255;53.596;9.960;2023-04-26T07:12:07;4.95;;;3.30;;
14342;SDS011;7255;53.596;9.960;2023-04-26T07:14:36;6.07;;;3.15;;
14342;SDS011;7255;53.596;9.960;2023-04-26T07:17:04;4.93;;;3.05;;
14342;SDS011;7255;53.596;9.960;2023-04-26T07:19:30;3.22;;;2.70;;
14342;SDS011;7255;53.596;9.960;2023-04-26T07:21:57;4.85;;;3.00;;
14342;SDS011;7255;53.596;9.960;2023-04-26T07:24:24;4.90;;;3.05;;
14342;SDS011;7255;53.596;9.960;2023-04-26T07:26:51;4.53;;;2.57;;
14342;SDS011;7255;53.596;9.960;2023-04-26T07:29:17;4.05;;;2.60;;
14342;SDS011;7255;53.596;9.960;2023-04-26T07:31:43;5.62;;;2.53;;
14342;SDS011;7255;53.596;9.960;2023-04-26T07:34:10;4.53;;;2.80;;
14342;SDS011;7255;53.596;9.960;2023-04-26T07:36:37;5.18;;;2.50;;
14342;SDS011;7255;53.596;9.960;2023-04-26T07:39:03;4.77;;;2.93;;
14342;SDS011;7255;53.596;9.960;2023-04-26T07:41:31;3.87;;;2.42;;
14342;SDS011;7255;53.596;9.960;2023-04-26T07:43:58;6.57;;;2.25;;
14342;SDS011;7255;53.596;9.960;2023-04-26T07:46:24;6.33;;;2.33;;
14342;SDS011;7255;53.596;9.960;2023-04-26T07:48:50;2.50;;;2.10;;
14342;SDS011;7255;53.596;9.960;2023-04-26T07:51:17;4.47;;;2.20;;
14342;SDS011;7255;53.596;9.960;2023-04-26T07:53:43;4.60;;;2.03;;
14342;SDS011;7255;53.596;9.960;2023-04-26T07:56:10;4.82;;;2.55;;
14342;SDS011;7255;53.596;9.960;2023-04-26T07:58:37;2.28;;;1.60;;
14342;SDS011;7255;53.596;9.960;2023-04-26T08:01:04;3.62;;;1.77;;
14342;SDS011;7255;53.596;9.960;2023-04-26T08:03:31;2.20;;;2.00;;
14342;SDS011;7255;53.596;9.960;2023-04-26T08:05:57;2.20;;;2.00;;
14342;SDS011;7255;53.596;9.960;2023-04-26T08:08:24;2.92;;;1.90;;
14342;SDS011;7255;53.596;9.960;2023-04-26T08:10:50;3.33;;;2.10;;
14342;SDS011;7255;53.596;9.960;2023-04-26T08:13:17;5.93;;;2.53;;
14342;SDS011;7255;53.596;9.960;2023-04-26T08:15:45;4.15;;;2.40;;
14342;SDS011;7255;53.596;9.960;2023-04-26T08:18:11;3.33;;;2.12;;
14342;SDS011;7255;53.596;9.960;2023-04-26T08:20:38;3.60;;;1.98;;
14342;SDS011;7255;53.596;9.960;2023-04-26T08:23:04;3.97;;;2.55;;
14342;SDS011;7255;53.596;9.960;2023-04-26T08:25:31;4.53;;;2.80;;
14342;SDS011;7255;53.596;9.960;2023-04-26T08:27:58;2.92;;;2.40;;
14342;SDS011;7255;53.596;9.960;2023-04-26T08:30:25;5.20;;;2.60;;
14342;SDS011;7255;53.596;9.960;2023-04-26T08:32:53;3.35;;;2.40;;
14342;SDS011;7255;53.596;9.960;2023-04-26T08:35:20;4.10;;;2.20;;
14342;SDS011;7255;53.596;9.960;2023-04-26T08:37:46;3.20;;;2.67;;
14342;SDS011;7255;53.596;9.960;2023-04-26T08:40:12;3.87;;;2.40;;
14342;SDS011;7255;53.596;9.960;2023-04-26T08:42:40;4.75;;;2.40;;
14342;SDS011;7255;53.596;9.960;2023-04-26T08:45:08;3.90;;;2.50;;
14342;SDS011;7255;53.596;9.960;2023-04-26T08:47:37;5.50;;;2.87;;
14342;SDS011;7255;53.596;9.960;2023-04-26T08:50:09;3.22;;;2.45;;
14342;SDS011;7255;53.596;9.960;2023-04-26T08:52:38;3.65;;;2.78;;
14342;SDS011;7255;53.596;9.960;2023-04-26T08:55:06;5.05;;;2.87;;
14342;SDS011;7255;53.596;9.960;2023-04-26T08:57:34;6.12;;;2.85;;
14342;SDS011;7255;53.596;9.960;2023-04-26T09:00:01;5.18;;;2.87;;
14342;SDS011;7255;53.596;9.960;2023-04-26T09:02:30;3.23;;;2.93;;
14342;SDS011;7255;53.596;9.960;2023-04-26T09:04:57;6.37;;;2.95;;
14342;SDS011;7255;53.596;9.960;2023-04-26T09:07:26;3.45;;;2.92;;
14342;SDS011;7255;53.596;9.960;2023-04-26T09:09:56;3.15;;;2.72;;
14342;SDS011;7255;53.596;9.960;2023-04-26T09:12:23;4.82;;;2.60;;
14342;SDS011;7255;53.596;9.960;2023-04-26T09:14:50;4.03;;;2.87;;
14342;SDS011;7255;53.596;9.960;2023-04-26T09:17:23;4.57;;;2.27;;
14342;SDS011;7255;53.596;9.960;2023-04-26T09:19:50;5.57;;;2.60;;
14342;SDS011;7255;53.596;9.960;2023-04-26T09:22:27;4.60;;;2.40;;
14342;SDS011;7255;53.596;9.960;2023-04-26T09:24:57;3.60;;;2.20;;
14342;SDS011;7255;53.596;9.960;2023-04-26T09:27:30;3.58;;;2.37;;
14342;SDS011;7255;53.596;9.960;2023-04-26T09:29:58;2.85;;;2.10;;
14342;SDS011;7255;53.596;9.960;2023-04-26T09:32:41;3.97;;;1.83;;
14342;SDS011;7255;53.596;9.960;2023-04-26T09:35:17;4.10;;;1.70;;
14342;SDS011;7255;53.596;9.960;2023-04-26T09:37:51;2.30;;;1.60;;
14342;SDS011;7255;53.596;9.960;2023-04-26T09:40:19;3.20;;;1.70;;
14342;SDS011;7255;53.596;9.960;2023-04-26T09:42:46;2.10;;;1.48;;
14342;SDS011;7255;53.596;9.960;2023-04-26T09:45:12;1.83;;;1.60;;
14342;SDS011;7255;53.596;9.960;2023-04-26T09:47:41;3.10;;;1.30;;
14342;SDS011;7255;53.596;9.960;2023-04-26T09:50:08;3.03;;;1.35;;
14342;SDS011;7255;53.596;9.960;2023-04-26T09:52:41;1.33;;;1.23;;
14342;SDS011;7255;53.596;9.960;2023-04-26T09:55:09;1.87;;;1.75;;
14342;SDS011;7255;53.596;9.960;2023-04-26T09:57:41;3.22;;;1.33;;
14342;SDS011;7255;53.596;9.960;2023-04-26T10:00:09;3.70;;;1.40;;
14342;SDS011;7255;53.596;9.960;2023-04-26T10:02:36;3.03;;;1.40;;
14342;SDS011;7255;53.596;9.960;2023-04-26T10:05:03;4.55;;;1.55;;
14342;SDS011;7255;53.596;9.960;2023-04-26T10:07:31;2.42;;;1.50;;
14342;SDS011;7255;53.596;9.960;2023-04-26T10:09:58;1.48;;;1.20;;
14342;SDS011;7255;53.596;9.960;2023-04-26T10:12:27;3.20;;;1.40;;
14342;SDS011;7255;53.596;9.960;2023-04-26T10:14:54;3.08;;;1.60;;
14342;SDS011;7255;53.596;9.960;2023-04-26T10:17:21;3.37;;;1.60;;
14342;SDS011;7255;53.596;9.960;2023-04-26T10:19:48;2.62;;;1.50;;
14342;SDS011;7255;53.596;9.960;2023-04-26T10:22:20;3.27;;;1.60;;
14342;SDS011;7255;53.596;9.960;2023-04-26T10:24:50;2.90;;;1.60;;
14342;SDS011;7255;53.596;9.960;2023-04-26T10:30:18;4.22;;;1.48;;
14342;SDS011;7255;53.596;9.960;2023-04-26T10:38:25;2.87;;;1.60;;
14342;SDS011;7255;53.596;9.960;2023-04-26T10:40:51;3.17;;;1.40;;
14342;SDS011;7255;53.596;9.960;2023-04-26T10:43:29;3.20;;;1.40;;
14342;SDS011;7255;53.596;9.960;2023-04-26T10:45:56;2.37;;;1.52;;
14342;SDS011;7255;53.596;9.960;2023-04-26T10:48:43;2.78;;;1.58;;
14342;SDS011;7255;53.596;9.960;2023-04-26T10:51:09;3.28;;;1.30;;
14342;SDS011;7255;53.596;9.960;2023-04-26T10:59:22;2.20;;;1.30;;
14342;SDS011;7255;53.596;9.960;2023-04-26T11:01:48;1.93;;;1.40;;
14342;SDS011;7255;53.596;9.960;2023-04-26T11:04:17;3.80;;;1.48;;
14342;SDS011;7255;53.596;9.960;2023-04-26T11:06:46;1.80;;;1.48;;
14342;SDS011;7255;53.596;9.960;2023-04-26T11:09:33;3.37;;;1.58;;
14342;SDS011;7255;53.596;9.960;2023-04-26T11:12:02;3.08;;;1.50;;
14342;SDS011;7255;53.596;9.960;2023-04-26T11:14:31;2.17;;;1.40;;
14342;SDS011;7255;53.596;9.960;2023-04-26T11:16:58;2.30;;;1.40;;
14342;SDS011;7255;53.596;9.960;2023-04-26T11:19:25;1.90;;;1.35;;
14342;SDS011;7255;53.596;9.960;2023-04-26T11:21:51;2.67;;;1.62;;
14342;SDS011;7255;53.596;9.960;2023-04-26T11:24:23;3.30;;;1.30;;
14342;SDS011;7255;53.596;9.960;2023-04-26T11:26:50;1.87;;;1.15;;
14342;SDS011;7255;53.596;9.960;2023-04-26T11:29:17;2.40;;;1.30;;
14342;SDS011;7255;53.596;9.960;2023-04-26T11:31:51;3.00;;;1.30;;
14342;SDS011;7255;53.596;9.960;2023-04-26T11:34:19;4.10;;;1.47;;
14342;SDS011;7255;53.596;9.960;2023-04-26T11:36:48;2.10;;;1.27;;
14342;SDS011;7255;53.596;9.960;2023-04-26T11:39:16;3.20;;;1.20;;
14342;SDS011;7255;53.596;9.960;2023-04-26T11:41:45;2.05;;;1.10;;
14342;SDS011;7255;53.596;9.960;2023-04-26T11:44:11;3.03;;;1.27;;
14342;SDS011;7255;53.596;9.960;2023-04-26T11:46:38;2.92;;;1.20;;
14342;SDS011;7255;53.596;9.960;2023-04-26T11:49:06;1.42;;;1.23;;
14342;SDS011;7255;53.596;9.960;2023-04-26T11:51:33;1.50;;;1.08;;
14342;SDS011;7255;53.596;9.960;2023-04-26T11:53:59;2.35;;;1.40;;
14342;SDS011;7255;53.596;9.960;2023-04-26T11:56:26;1.92;;;1.10;;
14342;SDS011;7255;53.596;9.960;2023-04-26T11:58:53;1.70;;;1.15;;
14342;SDS011;7255;53.596;9.960;2023-04-26T12:01:20;2.33;;;1.20;;
14342;SDS011;7255;53.596;9.960;2023-04-26T12:03:48;1.45;;;1.20;;
14342;SDS011;7255;53.596;9.960;2023-04-26T12:06:17;3.30;;;1.20;;
14342;SDS011;7255;53.596;9.960;2023-04-26T12:08:48;2.03;;;1.23;;
14342;SDS011;7255;53.596;9.960;2023-04-26T12:11:15;2.60;;;1.30;;
14342;SDS011;7255;53.596;9.960;2023-04-26T12:13:42;2.75;;;1.25;;
14342;SDS011;7255;53.596;9.960;2023-04-26T12:16:08;3.47;;;1.20;;
14342;SDS011;7255;53.596;9.960;2023-04-26T12:18:37;2.30;;;1.37;;
14342;SDS011;7255;53.596;9.960;2023-04-26T12:21:04;2.08;;;0.93;;
14342;SDS011;7255;53.596;9.960;2023-04-26T12:23:36;3.42;;;1.25;;
14342;SDS011;7255;53.596;9.960;2023-04-26T12:26:04;1.50;;;1.12;;
14342;SDS011;7255;53.596;9.960;2023-04-26T12:28:31;2.12;;;1.30;;
14342;SDS011;7255;53.596;9.960;2023-04-26T12:30:57;1.80;;;0.95;;
14342;SDS011;7255;53.596;9.960;2023-04-26T12:33:25;2.12;;;1.05;;
14342;SDS011;7255;53.596;9.960;2023-04-26T12:35:51;1.98;;;1.12;;
14342;SDS011;7255;53.596;9.960;2023-04-26T12:38:18;2.28;;;1.30;;
14342;SDS011;7255;53.596;9.960;2023-04-26T12:40:46;1.73;;;1.15;;
14342;SDS011;7255;53.596;9.960;2023-04-26T12:43:12;4.03;;;1.20;;
14342;SDS011;7255;53.596;9.960;2023-04-26T12:45:39;1.75;;;1.12;;
14342;SDS011;7255;53.596;9.960;2023-04-26T12:48:06;2.58;;;1.20;;
14342;SDS011;7255;53.596;9.960;2023-04-26T12:50:32;2.05;;;1.30;;
14342;SDS011;7255;53.596;9.960;2023-04-26T12:52:59;3.00;;;1.50;;
14342;SDS011;7255;53.596;9.960;2023-04-26T12:55:25;2.33;;;1.48;;
14342;SDS011;7255;53.596;9.960;2023-04-26T12:57:53;3.22;;;1.20;;
14342;SDS011;7255;53.596;9.960;2023-04-26T13:00:19;3.72;;;1.40;;
14342;SDS011;7255;53.596;9.960;2023-04-26T13:02:46;2.87;;;1.20;;
14342;SDS011;7255;53.596;9.960;2023-04-26T13:05:13;2.45;;;1.30;;
14342;SDS011;7255;53.596;9.960;2023-04-26T13:07:40;2.45;;;1.40;;
14342;SDS011;7255;53.596;9.960;2023-04-26T13:10:08;1.65;;;1.25;;
14342;SDS011;7255;53.596;9.960;2023-04-26T13:12:35;2.37;;;1.25;;
14342;SDS011;7255;53.596;9.960;2023-04-26T13:15:04;3.20;;;1.20;;
14342;SDS011;7255;53.596;9.960;2023-04-26T13:17:31;2.78;;;1.30;;
14342;SDS011;7255;53.596;9.960;2023-04-26T13:20:00;2.22;;;1.20;;
14342;SDS011;7255;53.596;9.960;2023-04-26T13:22:28;2.00;;;1.30;;
14342;SDS011;7255;53.596;9.960;2023-04-26T13:24:54;1.85;;;1.02;;
14342;SDS011;7255;53.596;9.960;2023-04-26T13:27:21;3.05;;;1.10;;
14342;SDS011;7255;53.596;9.960;2023-04-26T13:29:47;2.55;;;1.10;;
14342;SDS011;7255;53.596;9.960;2023-04-26T13:32:15;2.93;;;1.20;;
14342;SDS011;7255;53.596;9.960;2023-04-26T13:34:41;3.33;;;1.10;;
14342;SDS011;7255;53.596;9.960;2023-04-26T13:37:09;1.30;;;1.20;;
14342;SDS011;7255;53.596;9.960;2023-04-26T13:39:36;2.10;;;1.10;;
14342;SDS011;7255;53.596;9.960;2023-04-26T13:42:03;2.27;;;1.30;;
14342;SDS011;7255;53.596;9.960;2023-04-26T13:44:30;3.40;;;1.15;;
14342;SDS011;7255;53.596;9.960;2023-04-26T13:46:56;3.72;;;1.20;;
14342;SDS011;7255;53.596;9.960;2023-04-26T13:49:25;2.33;;;1.17;;
14342;SDS011;7255;53.596;9.960;2023-04-26T13:51:51;3.10;;;1.20;;
14342;SDS011;7255;53.596;9.960;2023-04-26T13:54:18;2.50;;;1.30;;
14342;SDS011;7255;53.596;9.960;2023-04-26T13:56:46;1.92;;;1.20;;
14342;SDS011;7255;53.596;9.960;2023-04-26T13:59:13;1.77;;;1.30;;
14342;SDS011;7255;53.596;9.960;2023-04-26T14:01:39;2.15;;;1.00;;
14342;SDS011;7255;53.596;9.960;2023-04-26T14:04:06;3.47;;;1.23;;
14342;SDS011;7255;53.596;9.960;2023-04-26T14:06:33;1.30;;;1.00;;
14342;SDS011;7255;53.596;9.960;2023-04-26T14:09:00;2.17;;;1.00;;
14342;SDS011;7255;53.596;9.960;2023-04-26T14:11:28;2.17;;;1.00;;
14342;SDS011;7255;53.596;9.960;2023-04-26T14:13:55;3.53;;;1.00;;
14342;SDS011;7255;53.596;9.960;2023-04-26T14:16:21;1.45;;;1.00;;
14342;SDS011;7255;53.596;9.960;2023-04-26T14:18:48;3.20;;;1.10;;
14342;SDS011;7255;53.596;9.960;2023-04-26T14:21:15;2.08;;;1.15;;
14342;SDS011;7255;53.596;9.960;2023-04-26T14:23:42;2.10;;;1.10;;
14342;SDS011;7255;53.596;9.960;2023-04-26T14:26:09;2.58;;;1.30;;
14342;SDS011;7255;53.596;9.960;2023-04-26T14:28:35;1.50;;;0.90;;
14342;SDS011;7255;53.596;9.960;2023-04-26T14:31:02;1.58;;;1.00;;
14342;SDS011;7255;53.596;9.960;2023-04-26T14:33:29;1.58;;;1.10;;
14342;SDS011;7255;53.596;9.960;2023-04-26T14:35:55;2.20;;;1.37;;
14342;SDS011;7255;53.596;9.960;2023-04-26T14:38:22;1.85;;;1.20;;
14342;SDS011;7255;53.596;9.960;2023-04-26T14:40:50;1.75;;;1.20;;
14342;SDS011;7255;53.596;9.960;2023-04-26T14:43:16;3.42;;;1.62;;
14342;SDS011;7255;53.596;9.960;2023-04-26T14:45:43;3.58;;;1.20;;
14342;SDS011;7255;53.596;9.960;2023-04-26T14:48:09;3.28;;;1.00;;
14342;SDS011;7255;53.596;9.960;2023-04-26T14:50:36;2.10;;;1.00;;
14342;SDS011;7255;53.596;9.960;2023-04-26T14:53:02;1.50;;;0.93;;
14342;SDS011;7255;53.596;9.960;2023-04-26T14:55:28;3.15;;;1.15;;
14342;SDS011;7255;53.596;9.960;2023-04-26T14:57:56;2.45;;;1.15;;
14342;SDS011;7255;53.596;9.960;2023-04-26T15:00:23;1.23;;;1.12;;
14342;SDS011;7255;53.596;9.960;2023-04-26T15:02:49;3.70;;;1.50;;
14342;SDS011;7255;53.596;9.960;2023-04-26T15:05:16;1.95;;;1.20;;
14342;SDS011;7255;53.596;9.960;2023-04-26T15:07:42;1.92;;;1.12;;
14342;SDS011;7255;53.596;9.960;2023-04-26T15:10:09;1.50;;;1.10;;
14342;SDS011;7255;53.596;9.960;2023-04-26T15:12:35;2.53;;;1.50;;
14342;SDS011;7255;53.596;9.960;2023-04-26T15:15:03;1.48;;;1.05;;